Time;durP1;ratioP1;P1;durP2;ratioP2;P2;SDS_P1;SDS_P2;PMS_P1;PMS_P2;Temp;Humidity;BMP_temperature;BMP_pressure;BME280_temperature;BME280_humidity;BME280_pressure;Samples;Min_cycle;Max_cycle;Signal;HPM_P1;HPM_P2
2023/02/17 00:01:23;;;;;;;60.80;36.20;;;;;;;2.11;100.00;99553.67;109604;1253;58086;-78
2023/02/17 00:03:50;;;;;;;63.60;36.10;;;;;;;2.12;100.00;99555.23;109594;1253;65300;-79
2023/02/17 00:06:20;;;;;;;58.50;35.60;;;;;;;2.11;100.00;99547.17;109262;1253;61123;-79
2023/02/17 00:08:47;;;;;;;62.90;36.00;;;;;;;2.11;100.00;99544.91;109519;1254;65226;-79
2023/02/17 00:11:15;;;;;;;62.50;37.90;;;;;;;2.12;100.00;99539.63;109556;1254;58211;-78
2023/02/17 00:13:42;;;;;;;58.60;35.70;;;;;;;2.13;100.00;99535.92;109577;1254;61458;-79
2023/02/17 00:16:12;;;;;;;59.80;35.50;;;;;;;2.15;100.00;99539.19;109574;1253;66377;-79
2023/02/17 00:18:39;;;;;;;62.50;36.70;;;;;;;2.18;100.00;99540.50;109588;1254;60058;-79
2023/02/17 00:21:15;;;;;;;56.80;34.20;;;;;;;2.21;100.00;99546.23;109575;1254;64076;-79
2023/02/17 00:23:42;;;;;;;57.40;34.20;;;;;;;2.24;100.00;99545.48;109540;1254;58212;-79
2023/02/17 00:26:09;;;;;;;57.20;34.00;;;;;;;2.26;100.00;99539.83;109556;1253;58408;-79
2023/02/17 00:28:36;;;;;;;58.70;35.80;;;;;;;2.27;100.00;99542.06;109599;1254;66293;-79
2023/02/17 00:31:08;;;;;;;59.70;35.50;;;;;;;2.29;100.00;99541.14;109592;1254;61132;-79
2023/02/17 00:33:34;;;;;;;58.10;35.50;;;;;;;2.30;100.00;99539.90;109552;1252;65132;-79
2023/02/17 00:36:03;;;;;;;55.10;35.10;;;;;;;2.30;100.00;99541.11;109580;1254;58365;-78
2023/02/17 00:38:30;;;;;;;61.10;37.70;;;;;;;2.30;100.00;99539.02;109597;1254;58343;-78
2023/02/17 00:40:57;;;;;;;63.60;38.90;;;;;;;2.28;100.00;99532.91;109572;1252;66405;-80
2023/02/17 00:43:24;;;;;;;60.40;37.90;;;;;;;2.28;100.00;99530.65;109556;1254;60310;-80
2023/02/17 00:45:51;;;;;;;54.10;36.80;;;;;;;2.26;100.00;99525.94;109222;1254;62984;-79
2023/02/17 00:48:18;;;;;;;57.00;35.90;;;;;;;2.24;100.00;99524.08;109537;1254;58248;-80
2023/02/17 00:50:45;;;;;;;52.00;33.70;;;;;;;2.22;100.00;99525.17;109209;1254;58224;-79
2023/02/17 00:53:12;;;;;;;59.10;37.40;;;;;;;2.20;100.00;99522.42;109573;1254;66277;-80
2023/02/17 00:55:38;;;;;;;58.20;37.50;;;;;;;2.18;100.00;99514.94;109574;1254;61036;-80
2023/02/17 00:58:05;;;;;;;61.60;37.10;;;;;;;2.15;100.00;99511.15;109541;1253;62827;-80
2023/02/17 01:00:32;;;;;;;60.30;36.50;;;;;;;2.12;100.00;99509.46;109572;1254;58222;-80
2023/02/17 01:02:59;;;;;;;57.10;35.00;;;;;;;2.10;100.00;99510.55;109559;1254;58277;-77
2023/02/17 01:05:26;;;;;;;55.10;35.10;;;;;;;2.09;100.00;99504.80;109538;1254;66495;-79
2023/02/17 01:07:52;;;;;;;52.30;33.90;;;;;;;2.08;100.00;99498.70;109596;1253;60155;-79
2023/02/17 01:10:19;;;;;;;54.50;36.20;;;;;;;2.06;100.00;99494.73;109620;1254;65035;-79
2023/02/17 01:12:46;;;;;;;61.60;40.10;;;;;;;2.05;100.00;99491.08;108796;1253;1002973;-79
2023/02/17 01:15:13;;;;;;;58.60;36.90;;;;;;;2.04;100.00;99490.73;109557;1254;58474;-80
2023/02/17 01:17:40;;;;;;;58.60;36.10;;;;;;;2.04;100.00;99488.81;109256;1254;64055;-77
2023/02/17 01:20:07;;;;;;;53.80;34.30;;;;;;;2.03;100.00;99488.30;109578;1254;61601;-77
2023/02/17 01:22:34;;;;;;;55.30;34.90;;;;;;;2.04;100.00;99486.71;109527;1253;64178;-78
2023/02/17 01:25:00;;;;;;;56.60;33.50;;;;;;;2.06;100.00;99488.08;109505;1253;58171;-78
2023/02/17 01:27:27;;;;;;;58.00;37.00;;;;;;;2.07;100.00;99483.83;107883;1253;1002314;-78
2023/02/17 01:29:54;;;;;;;58.10;36.50;;;;;;;2.09;100.00;99480.27;109596;1253;58270;-79
2023/02/17 01:32:20;;;;;;;57.70;36.00;;;;;;;2.11;100.00;99478.64;109592;1254;58182;-79
2023/02/17 01:34:49;;;;;;;52.20;32.90;;;;;;;2.14;100.00;99481.36;109567;1254;65563;-78
2023/02/17 01:37:15;;;;;;;49.20;32.80;;;;;;;2.17;100.00;99479.54;109202;1252;58234;-78
2023/02/17 01:39:42;;;;;;;50.50;33.60;;;;;;;2.20;100.00;99480.69;109584;1253;58220;-78
2023/02/17 01:42:15;;;;;;;52.30;34.00;;;;;;;2.24;100.00;99480.79;109545;1254;74955;-79
2023/02/17 01:45:29;;;;;;;54.70;33.80;;;;;;;2.26;100.00;99476.17;109544;1254;61047;-79
2023/02/17 01:48:04;;;;;;;52.70;32.10;;;;;;;2.30;100.00;99472.57;109595;1253;65428;-78
2023/02/17 01:50:36;;;;;;;54.50;33.10;;;;;;;2.33;100.00;99469.84;109564;1253;58187;-79
2023/02/17 01:53:05;;;;;;;52.80;31.70;;;;;;;2.35;100.00;99466.63;109605;1252;58108;-79
2023/02/17 01:55:33;;;;;;;48.10;29.40;;;;;;;2.36;100.00;99465.36;109211;1254;65287;-80
2023/02/17 01:58:02;;;;;;;48.00;30.80;;;;;;;2.36;100.00;99459.26;108496;1254;1003122;-80
2023/02/17 02:00:32;;;;;;;47.20;30.80;;;;;;;2.36;100.00;99464.34;109276;1254;63824;-79
2023/02/17 02:03:01;;;;;;;48.10;30.90;;;;;;;2.34;100.00;99466.86;109437;1253;58212;-79
2023/02/17 02:05:28;;;;;;;49.60;30.70;;;;;;;2.31;100.00;99462.55;109193;1256;58215;-79
2023/02/17 02:07:55;;;;;;;50.40;30.70;;;;;;;2.27;100.00;99462.81;109236;1257;66237;-80
2023/02/17 02:10:22;;;;;;;49.60;30.80;;;;;;;2.25;100.00;99459.73;109269;1255;60056;-78
2023/02/17 02:12:49;;;;;;;49.60;31.70;;;;;;;2.23;100.00;99462.41;109237;1255;65042;-79
2023/02/17 02:15:21;;;;;;;47.00;31.00;;;;;;;2.20;100.00;99465.63;109207;1256;58169;-79
2023/02/17 02:18:25;;;;;;;49.80;30.00;;;;;;;2.16;100.00;99460.81;109235;1256;58384;-80
2023/02/17 02:21:19;;;;;;;46.30;30.10;;;;;;;2.15;100.00;99459.79;109243;1256;66431;-79
2023/02/17 02:23:54;;;;;;;46.40;30.50;;;;;;;2.15;100.00;99462.42;109027;1257;61260;-80
2023/02/17 02:27:00;;;;;;;47.60;29.00;;;;;;;2.14;100.00;99461.58;109252;1257;64120;-80
2023/02/17 02:29:40;;;;;;;47.90;30.50;;;;;;;2.10;100.00;99454.13;109246;1257;58174;-79
2023/02/17 02:32:31;;;;;;;45.70;27.70;;;;;;;2.07;100.00;99456.14;109219;1257;58305;-80
2023/02/17 02:35:09;;;;;;;42.20;28.00;;;;;;;2.06;100.00;99457.05;109247;1257;66216;-80
2023/02/17 02:37:44;;;;;;;46.80;30.30;;;;;;;2.04;100.00;99455.33;109456;1254;60428;-77
2023/02/17 02:40:31;;;;;;;48.80;30.50;;;;;;;2.00;100.00;99451.06;109147;1254;64264;-79
2023/02/17 02:43:01;;;;;;;44.10;29.40;;;;;;;1.97;100.00;99449.20;109158;1254;58355;-79
2023/02/17 02:45:27;;;;;;;44.90;28.60;;;;;;;1.95;100.00;99448.73;109134;1257;58169;-77
2023/02/17 02:47:56;;;;;;;53.30;33.20;;;;;;;1.94;100.00;99448.57;109241;1254;65337;-79
2023/02/17 02:50:43;;;;;;;45.70;29.30;;;;;;;1.93;100.00;99445.27;109223;1254;59700;-78
2023/02/17 02:53:46;;;;;;;41.60;28.70;;;;;;;1.95;100.00;99442.95;108977;1260;65002;-78
2023/02/17 02:56:35;;;;;;;47.30;28.30;;;;;;;1.97;100.00;99442.20;109030;1259;58264;-78
2023/02/17 02:59:20;;;;;;;47.10;29.70;;;;;;;2.01;100.00;99436.84;109004;1260;58715;-78
2023/02/17 03:01:56;;;;;;;43.30;28.40;;;;;;;2.07;100.00;99430.21;109005;1259;66274;-78
2023/02/17 03:04:51;;;;;;;47.90;32.40;;;;;;;2.13;100.00;99432.14;109041;1259;61275;-79
2023/02/17 03:07:30;;;;;;;42.10;29.10;;;;;;;2.20;100.00;99434.05;108617;1267;65261;-79
2023/02/17 03:09:58;;;;;;;47.10;28.90;;;;;;;2.27;100.00;99431.80;108575;1265;58631;-79
2023/02/17 03:12:26;;;;;;;44.40;30.20;;;;;;;2.31;100.00;99431.15;108562;1267;58987;-78
2023/02/17 03:15:04;;;;;;;47.30;30.10;;;;;;;2.36;100.00;99432.23;108665;1265;65260;-79
2023/02/17 03:17:32;;;;;;;43.30;27.70;;;;;;;2.39;100.00;99427.77;108658;1265;61272;-80
2023/02/17 03:20:02;;;;;;;39.80;27.10;;;;;;;2.44;100.00;99425.73;108659;1266;63852;-79
2023/02/17 03:22:34;;;;;;;43.30;27.70;;;;;;;2.49;100.00;99423.49;108583;1265;58635;-80
2023/02/17 03:25:02;;;;;;;43.90;26.60;;;;;;;2.55;100.00;99428.58;108652;1265;58154;-79
2023/02/17 03:27:28;;;;;;;39.60;27.30;;;;;;;2.61;100.00;99429.83;108645;1266;65270;-79
2023/02/17 03:29:55;;;;;;;38.90;27.20;;;;;;;2.66;100.00;99422.30;108853;1260;58560;-79
2023/02/17 03:32:22;;;;;;;38.30;26.60;;;;;;;2.72;100.00;99423.39;109058;1259;62951;-80
2023/02/17 03:34:49;;;;;;;36.70;24.30;;;;;;;2.76;100.00;99420.97;108971;1259;58307;-80
2023/02/17 03:37:16;;;;;;;38.40;24.70;;;;;;;2.80;100.00;99419.27;108997;1260;58251;-79
2023/02/17 03:39:42;;;;;;;36.70;24.60;;;;;;;2.85;100.00;99415.11;108794;1259;66262;-79
2023/02/17 03:42:09;;;;;;;37.60;25.30;;;;;;;2.89;100.00;99410.07;108983;1260;60342;-80
2023/02/17 03:44:36;;;;;;;35.00;23.70;;;;;;;2.91;100.00;99406.49;109196;1253;65213;-80
2023/02/17 03:47:03;;;;;;;39.60;25.60;;;;;;;2.93;100.00;99405.74;109466;1254;58435;-79
2023/02/17 03:49:30;;;;;;;36.40;24.70;;;;;;;2.97;100.00;99406.35;109522;1254;58213;-79
2023/02/17 03:51:58;;;;;;;39.30;27.20;;;;;;;2.98;100.00;99405.45;109460;1253;66273;-78
2023/02/17 03:54:25;;;;;;;37.40;24.50;;;;;;;2.98;100.00;99409.81;108702;1254;1002035;-79
2023/02/17 03:56:52;;;;;;;41.00;26.90;;;;;;;2.98;100.00;99411.23;109463;1253;65029;-79
2023/02/17 03:59:19;;;;;;;39.50;26.20;;;;;;;2.96;100.00;99411.45;109510;1253;58209;-79
2023/02/17 04:01:46;;;;;;;46.00;29.70;;;;;;;2.95;100.00;99416.40;109199;1253;58321;-79
2023/02/17 04:04:13;;;;;;;46.50;30.90;;;;;;;2.95;100.00;99418.50;109436;1253;65233;-79
2023/02/17 04:06:40;;;;;;;42.60;29.60;;;;;;;2.96;100.00;99417.77;109569;1252;60388;-79
2023/02/17 04:09:06;;;;;;;42.10;27.40;;;;;;;2.99;100.00;99415.23;109602;1253;64357;-78
2023/02/17 04:11:33;;;;;;;47.50;31.50;;;;;;;3.03;100.00;99412.48;109631;1253;58176;-79
2023/02/17 04:14:00;;;;;;;38.20;27.20;;;;;;;3.08;100.00;99406.70;109533;1253;58200;-80
2023/02/17 04:16:26;;;;;;;39.60;26.20;;;;;;;3.12;100.00;99406.94;109582;1253;65050;-79
2023/02/17 04:18:53;;;;;;;40.70;28.90;;;;;;;3.16;100.00;99406.82;109617;1253;61111;-80
2023/02/17 04:21:20;;;;;;;40.70;28.30;;;;;;;3.19;100.00;99406.19;109553;1253;64165;-79
2023/02/17 04:23:46;;;;;;;42.90;28.10;;;;;;;3.22;100.00;99402.06;109164;1254;58216;-79
2023/02/17 04:26:13;;;;;;;42.00;27.80;;;;;;;3.25;100.00;99397.77;109603;1253;58972;-79
2023/02/17 04:28:41;;;;;;;39.00;27.50;;;;;;;3.27;100.00;99393.65;109606;1253;66261;-80
2023/02/17 04:31:08;;;;;;;39.10;26.90;;;;;;;3.28;100.00;99394.67;109541;1253;61101;-80
2023/02/17 04:33:36;;;;;;;47.00;28.90;;;;;;;3.29;100.00;99390.96;109529;1254;64808;-79
2023/02/17 04:36:04;;;;;;;39.30;26.50;;;;;;;3.30;100.00;99390.07;109519;1253;58172;-79
2023/02/17 04:38:31;;;;;;;37.90;27.30;;;;;;;3.32;100.00;99392.65;109569;1253;58277;-79
2023/02/17 04:40:59;;;;;;;43.80;29.70;;;;;;;3.34;100.00;99395.05;109560;1253;65105;-79
2023/02/17 04:43:27;;;;;;;45.10;29.70;;;;;;;3.36;100.00;99397.63;109465;1253;60340;-79
2023/02/17 04:45:54;;;;;;;36.70;27.00;;;;;;;3.38;100.00;99395.27;109568;1253;65076;-79
2023/02/17 04:48:21;;;;;;;40.80;26.60;;;;;;;3.42;100.00;99397.61;109527;1253;58162;-79
2023/02/17 04:50:48;;;;;;;41.70;27.70;;;;;;;3.44;100.00;99396.64;109609;1253;58218;-80
2023/02/17 04:53:15;;;;;;;38.40;25.90;;;;;;;3.49;100.00;99399.66;109565;1253;66348;-80
2023/02/17 04:55:42;;;;;;;38.60;26.50;;;;;;;3.55;100.00;99403.16;109315;1253;61104;-80
2023/02/17 04:58:09;;;;;;;40.50;28.20;;;;;;;3.62;100.00;99403.63;109553;1253;65299;-79
2023/02/17 05:00:37;;;;;;;43.80;29.90;;;;;;;3.69;100.00;99402.53;109399;1253;58559;-80
2023/02/17 05:03:03;;;;;;;39.10;27.20;;;;;;;3.75;100.00;99394.42;109555;1253;58086;-80
2023/02/17 05:05:30;;;;;;;37.40;25.90;;;;;;;3.83;100.00;99389.79;109549;1253;66222;-80
2023/02/17 05:07:57;;;;;;;39.30;25.40;;;;;;;3.89;100.00;99386.41;109446;1252;61213;-80
2023/02/17 05:10:24;;;;;;;37.80;25.60;;;;;;;3.98;100.00;99383.30;109562;1252;65399;-80
2023/02/17 05:12:51;;;;;;;35.90;24.10;;;;;;;4.05;100.00;99380.78;109537;1253;58173;-79
2023/02/17 05:15:18;;;;;;;38.30;24.70;;;;;;;4.12;100.00;99378.79;109548;1252;58295;-78
2023/02/17 05:17:44;;;;;;;35.20;25.10;;;;;;;4.19;100.00;99374.52;109195;1253;64202;-80
2023/02/17 05:20:11;;;;;;;35.00;24.20;;;;;;;4.26;100.00;99368.09;109557;1253;60106;-78
2023/02/17 05:22:38;;;;;;;36.20;25.40;;;;;;;4.32;100.00;99362.60;109532;1253;64079;-80
2023/02/17 05:25:05;;;;;;;36.80;26.00;;;;;;;4.37;100.00;99361.02;109522;1253;58281;-79
2023/02/17 05:27:32;;;;;;;32.80;24.90;;;;;;;4.42;100.00;99351.51;109587;1252;58140;-80
2023/02/17 05:29:59;;;;;;;40.10;26.80;;;;;;;4.46;100.00;99348.39;109586;1252;65715;-79
2023/02/17 05:32:26;;;;;;;40.80;27.20;;;;;;;4.50;100.00;99353.51;109546;1253;60085;-79
2023/02/17 05:34:52;;;;;;;37.30;26.70;;;;;;;4.53;100.00;99351.11;109582;1253;65237;-79
2023/02/17 05:37:19;;;;;;;36.60;27.10;;;;;;;4.55;100.00;99351.55;109580;1253;58173;-80
2023/02/17 05:39:46;;;;;;;38.20;25.90;;;;;;;4.56;100.00;99344.46;109606;1252;58132;-80
2023/02/17 05:42:13;;;;;;;36.70;26.30;;;;;;;4.60;100.00;99342.61;109487;1252;66308;-80
2023/02/17 05:44:40;;;;;;;33.80;24.10;;;;;;;4.63;100.00;99342.12;109257;1252;60902;-80
2023/02/17 05:47:06;;;;;;;38.10;25.80;;;;;;;4.68;100.00;99340.71;109572;1253;65362;-80
2023/02/17 05:49:33;;;;;;;41.00;26.30;;;;;;;4.72;100.00;99337.91;109533;1252;60366;-81
2023/02/17 05:52:01;;;;;;;35.70;24.70;;;;;;;4.75;100.00;99337.44;109470;1254;58176;-80
2023/02/17 05:54:28;;;;;;;36.50;24.50;;;;;;;4.79;100.00;99340.12;109570;1253;66405;-80
2023/02/17 05:56:55;;;;;;;33.70;24.30;;;;;;;4.81;100.00;99338.98;109605;1253;61540;-80
2023/02/17 05:59:23;;;;;;;37.90;26.00;;;;;;;4.82;100.00;99332.95;109540;1253;65156;-79
2023/02/17 06:01:50;;;;;;;36.50;25.90;;;;;;;4.82;100.00;99328.55;109516;1253;58207;-80
2023/02/17 06:04:17;;;;;;;34.40;25.00;;;;;;;4.82;100.00;99330.14;109493;1253;58254;-80
2023/02/17 06:06:43;;;;;;;34.40;25.40;;;;;;;4.82;100.00;99333.84;109373;1252;66542;-80
2023/02/17 06:09:10;;;;;;;38.40;26.40;;;;;;;4.84;100.00;99334.48;109589;1253;60009;-78
2023/02/17 06:11:37;;;;;;;37.40;26.30;;;;;;;4.86;100.00;99336.35;109376;1252;64866;-78
2023/02/17 06:14:04;;;;;;;34.90;23.50;;;;;;;4.86;100.00;99333.16;109482;1253;58164;-78
2023/02/17 06:16:30;;;;;;;36.10;25.60;;;;;;;4.88;100.00;99324.48;109552;1253;58210;-79
2023/02/17 06:18:58;;;;;;;35.20;26.40;;;;;;;4.90;100.00;99324.21;109524;1252;65142;-79
2023/02/17 06:21:25;;;;;;;32.80;23.60;;;;;;;4.92;100.00;99322.54;109605;1253;60080;-79
2023/02/17 06:23:52;;;;;;;31.40;24.20;;;;;;;4.94;100.00;99318.05;109528;1253;65196;-79
2023/02/17 06:26:18;;;;;;;37.00;25.40;;;;;;;4.96;100.00;99312.36;109291;1253;58324;-79
2023/02/17 06:28:45;;;;;;;35.50;25.40;;;;;;;4.99;100.00;99310.49;109625;1252;58179;-79
2023/02/17 06:31:12;;;;;;;39.40;26.70;;;;;;;5.01;100.00;99306.91;109567;1252;66302;-79
2023/02/17 06:33:38;;;;;;;37.60;26.00;;;;;;;5.03;100.00;99306.64;109541;1253;61177;-78
2023/02/17 06:36:06;;;;;;;38.50;25.50;;;;;;;5.05;100.00;99308.11;109573;1253;65076;-78
2023/02/17 06:38:32;;;;;;;40.30;26.60;;;;;;;5.09;100.00;99312.39;109090;1252;58210;-79
2023/02/17 06:40:59;;;;;;;37.20;26.50;;;;;;;5.12;100.00;99311.02;109383;1252;58226;-79
2023/02/17 06:43:26;;;;;;;35.80;25.50;;;;;;;5.17;100.00;99312.61;109556;1253;65242;-79
2023/02/17 06:45:52;;;;;;;36.20;23.80;;;;;;;5.21;100.00;99311.55;109317;1254;60014;-80
2023/02/17 06:48:19;;;;;;;34.50;24.50;;;;;;;5.25;100.00;99311.71;109306;1253;64215;-80
2023/02/17 06:50:48;;;;;;;38.60;28.20;;;;;;;5.29;100.00;99315.96;109518;1252;58226;-79
2023/02/17 06:53:14;;;;;;;37.50;25.80;;;;;;;5.33;100.00;99316.56;109554;1253;58246;-79
2023/02/17 06:55:43;;;;;;;36.10;23.50;;;;;;;5.37;100.00;99317.44;109441;1253;66437;-79
2023/02/17 06:58:10;;;;;;;34.40;24.00;;;;;;;5.42;100.00;99321.25;109429;1252;60846;-79
2023/02/17 07:00:37;;;;;;;32.40;24.30;;;;;;;5.47;100.00;99321.08;109511;1253;65229;-79
2023/02/17 07:03:04;;;;;;;34.40;23.70;;;;;;;5.51;100.00;99312.29;109273;1252;58224;-79
2023/02/17 07:05:34;;;;;;;30.20;22.70;;;;;;;5.55;100.00;99313.16;109533;1253;58551;-80
2023/02/17 07:08:00;;;;;;;32.50;23.30;;;;;;;5.61;100.00;99312.22;109132;1252;66323;-79
2023/02/17 07:10:27;;;;;;;30.40;22.10;;;;;;;5.70;100.00;99307.26;109550;1253;61141;-79
2023/02/17 07:12:54;;;;;;;30.20;22.40;;;;;;;5.82;100.00;99301.48;109547;1252;65653;-79
2023/02/17 07:15:21;;;;;;;31.50;21.80;;;;;;;5.96;100.00;99298.61;109553;1253;58127;-79
2023/02/17 07:17:47;;;;;;;32.10;23.50;;;;;;;6.09;100.00;99298.72;109263;1253;58267;-79
2023/02/17 07:20:14;;;;;;;30.90;22.30;;;;;;;6.23;100.00;99295.45;109545;1253;65320;-79
2023/02/17 07:22:41;;;;;;;29.20;22.60;;;;;;;6.37;100.00;99292.55;109571;1253;60274;-79
2023/02/17 07:25:08;;;;;;;32.00;22.80;;;;;;;6.52;100.00;99290.98;109583;1253;64193;-80
2023/02/17 07:27:36;;;;;;;30.80;23.00;;;;;;;6.67;100.00;99284.67;109283;1253;58304;-80
2023/02/17 07:30:03;;;;;;;27.00;21.80;;;;;;;6.78;100.00;99273.34;109155;1253;59166;-80
2023/02/17 07:32:30;;;;;;;30.20;22.30;;;;;;;6.90;100.00;99270.52;109452;1253;65235;-79
2023/02/17 07:34:57;;;;;;;30.10;22.20;;;;;;;6.98;100.00;99277.52;109613;1252;61713;-80
2023/02/17 07:37:24;;;;;;;27.90;22.20;;;;;;;7.08;100.00;99282.37;109520;1252;65020;-80
2023/02/17 07:39:51;;;;;;;28.60;21.20;;;;;;;7.16;100.00;99278.10;109522;1252;58140;-80
2023/02/17 07:42:17;;;;;;;29.90;22.60;;;;;;;7.22;100.00;99276.73;109569;1252;58084;-80
2023/02/17 07:44:44;;;;;;;30.90;23.10;;;;;;;7.27;100.00;99279.33;109542;1253;66254;-80
2023/02/17 07:47:11;;;;;;;28.80;21.80;;;;;;;7.29;100.00;99281.90;109573;1252;61213;-80
2023/02/17 07:49:37;;;;;;;30.30;23.50;;;;;;;7.31;100.00;99285.52;109356;1253;65121;-80
2023/02/17 07:52:04;;;;;;;31.70;24.60;;;;;;;7.34;100.00;99287.99;109548;1252;58220;-81
2023/02/17 07:54:31;;;;;;;36.80;26.50;;;;;;;7.38;100.00;99284.98;109586;1253;58230;-80
2023/02/17 07:56:58;;;;;;;35.10;25.50;;;;;;;7.42;100.00;99280.17;109225;1256;65205;-79
2023/02/17 07:59:26;;;;;;;37.20;27.40;;;;;;;7.45;100.00;99278.27;109087;1255;60872;-78
2023/02/17 08:01:53;;;;;;;41.70;28.40;;;;;;;7.47;100.00;99282.06;109243;1255;64195;-78
2023/02/17 08:04:19;;;;;;;38.20;27.70;;;;;;;7.48;100.00;99278.47;109242;1255;58231;-79
2023/02/17 08:06:46;;;;;;;37.50;26.50;;;;;;;7.48;100.00;99277.24;109251;1255;58218;-78
2023/02/17 08:14:43;;;;;;;35.80;25.00;;;;;;;7.48;100.00;99258.48;109283;1255;65336;-79
2023/02/17 08:17:10;;;;;;;32.80;24.10;;;;;;;7.52;100.00;99259.20;109063;1257;58582;-80
2023/02/17 08:19:36;;;;;;;33.50;24.90;;;;;;;7.59;100.00;99253.00;109294;1255;58289;-79
2023/02/17 08:22:03;;;;;;;34.00;24.40;;;;;;;7.66;100.00;99249.45;109270;1256;64877;-79
2023/02/17 08:24:30;;;;;;;34.50;25.40;;;;;;;7.73;100.00;99253.20;109244;1256;61210;-80
2023/02/17 08:26:56;;;;;;;32.50;23.30;;;;;;;7.77;100.00;99255.11;109114;1255;64037;-80
2023/02/17 08:29:23;;;;;;;33.80;23.40;;;;;;;7.79;100.00;99255.50;109496;1252;58162;-79
2023/02/17 08:31:52;;;;;;;33.10;23.80;;;;;;;7.81;100.00;99250.29;109381;1253;58114;-79
2023/02/17 08:34:19;;;;;;;31.90;23.10;;;;;;;7.80;100.00;99251.04;109427;1253;65277;-80
2023/02/17 08:36:46;;;;;;;32.40;24.00;;;;;;;7.81;100.00;99249.23;109617;1252;60252;-79
2023/02/17 08:39:14;;;;;;;33.20;25.40;;;;;;;7.80;100.00;99252.47;109613;1253;64171;-79
2023/02/17 08:41:43;;;;;;;37.90;26.20;;;;;;;7.75;100.00;99253.27;109444;1253;58223;-79
2023/02/17 08:44:13;;;;;;;31.20;23.30;;;;;;;7.68;100.00;99250.95;109183;1252;58301;-80
2023/02/17 08:46:41;;;;;;;29.90;24.00;;;;;;;7.61;100.00;99252.91;109512;1253;65256;-79
2023/02/17 08:49:08;;;;;;;33.40;25.40;;;;;;;7.53;100.00;99256.98;109564;1253;60317;-80
2023/02/17 08:51:35;;;;;;;37.20;26.20;;;;;;;7.46;100.00;99259.80;109589;1252;64097;-80
2023/02/17 08:54:05;;;;;;;32.50;24.00;;;;;;;7.40;100.00;99259.05;109418;1253;58137;-80
2023/02/17 08:56:33;;;;;;;36.90;25.30;;;;;;;7.33;100.00;99261.55;109215;1252;58157;-80
2023/02/17 08:59:00;;;;;;;33.60;24.20;;;;;;;7.26;100.00;99256.91;109552;1252;65118;-79
2023/02/17 09:01:27;;;;;;;33.50;25.60;;;;;;;7.20;100.00;99256.88;109594;1253;61240;-79
2023/02/17 09:03:56;;;;;;;36.10;25.00;;;;;;;7.16;100.00;99256.53;109539;1252;63330;-79
2023/02/17 09:06:30;;;;;;;35.30;26.10;;;;;;;7.16;100.00;99254.43;109424;1253;58229;-79
2023/02/17 09:08:56;;;;;;;36.40;26.20;;;;;;;7.17;100.00;99251.02;109574;1252;58236;-80
2023/02/17 09:11:23;;;;;;;31.50;25.10;;;;;;;7.19;100.00;99251.25;109568;1253;66389;-80
2023/02/17 09:13:50;;;;;;;34.70;25.80;;;;;;;7.25;100.00;99251.83;108779;1252;1000614;-80
2023/02/17 09:16:19;;;;;;;34.50;25.10;;;;;;;7.34;100.00;99249.85;109541;1252;65327;-79
2023/02/17 09:18:46;;;;;;;33.00;25.20;;;;;;;7.44;100.00;99250.37;109555;1252;58181;-80
2023/02/17 09:21:13;;;;;;;35.70;26.40;;;;;;;7.54;100.00;99242.10;109438;1252;59314;-80
2023/02/17 09:23:40;;;;;;;38.00;28.30;;;;;;;7.64;100.00;99246.03;109549;1252;65349;-79
2023/02/17 09:26:09;;;;;;;38.10;28.10;;;;;;;7.70;100.00;99246.98;109039;1257;61658;-80
2023/02/17 09:28:36;;;;;;;37.50;27.70;;;;;;;7.74;100.00;99250.11;109087;1257;64795;-79
2023/02/17 09:31:14;;;;;;;37.10;28.20;;;;;;;7.78;100.00;99243.02;109092;1257;58143;-77
2023/02/17 09:33:41;;;;;;;39.20;28.10;;;;;;;7.82;100.00;99241.94;109022;1257;58268;-78
2023/02/17 09:36:11;;;;;;;36.70;26.90;;;;;;;7.86;100.00;99239.23;109078;1257;65749;-78
2023/02/17 09:38:40;;;;;;;36.90;28.20;;;;;;;7.90;100.00;99235.12;109048;1257;60127;-77
2023/02/17 09:41:19;;;;;;;42.10;29.90;;;;;;;7.94;100.00;99230.02;108964;1257;65608;-78
2023/02/17 09:43:47;;;;;;;40.50;28.40;;;;;;;7.97;100.00;99228.40;109048;1257;58235;-79
2023/02/17 09:46:25;;;;;;;39.30;27.70;;;;;;;8.01;100.00;99228.39;109070;1257;58315;-79
2023/02/17 09:48:56;;;;;;;36.10;27.00;;;;;;;8.07;100.00;99224.69;109065;1257;64859;-79
2023/02/17 09:51:34;;;;;;;38.10;26.00;;;;;;;8.17;100.00;99219.58;109104;1257;60258;-79
2023/02/17 09:54:09;;;;;;;34.20;24.30;;;;;;;8.34;100.00;99217.60;109091;1257;65381;-79
2023/02/17 09:56:40;;;;;;;26.20;20.10;;;;;;;8.49;100.00;99214.85;109154;1252;58267;-79
2023/02/17 09:59:14;;;;;;;25.40;19.60;;;;;;;8.57;100.00;99211.95;109583;1253;58242;-79
2023/02/17 10:01:44;;;;;;;22.30;17.00;;;;;;;8.65;100.00;99213.12;109527;1253;66462;-80
2023/02/17 10:04:43;;;;;;;21.70;16.90;;;;;;;8.69;100.00;99209.16;109632;1252;60249;-80
2023/02/17 10:07:24;;;;;;;18.00;15.30;;;;;;;8.67;100.00;99211.39;108947;1259;65183;-80
2023/02/17 10:09:57;;;;;;;19.00;15.30;;;;;;;8.67;100.00;99210.86;108971;1259;58298;-79
2023/02/17 10:12:29;;;;;;;20.60;15.60;;;;;;;8.68;100.00;99208.48;108963;1259;58119;-79
2023/02/17 10:15:02;;;;;;;17.30;15.00;;;;;;;8.66;100.00;99209.30;109002;1259;65100;-80
2023/02/17 10:18:00;;;;;;;22.00;17.30;;;;;;;8.63;100.00;99210.56;108853;1259;58813;-80
2023/02/17 10:20:38;;;;;;;18.50;15.10;;;;;;;8.65;100.00;99202.80;109006;1259;64494;-78
2023/02/17 10:23:27;;;;;;;19.80;16.60;;;;;;;8.70;100.00;99199.37;108963;1259;58210;-79
2023/02/17 10:26:25;;;;;;;19.60;14.60;;;;;;;8.71;100.00;99192.90;108942;1259;58282;-79
2023/02/17 10:29:13;;;;;;;16.80;15.00;;;;;;;8.70;100.00;99185.31;109015;1258;64165;-80
2023/02/17 10:31:45;;;;;;;20.40;15.30;;;;;;;8.73;100.00;99180.04;109014;1259;61078;-79
2023/02/17 10:34:31;;;;;;;17.20;14.50;;;;;;;8.78;100.00;99178.30;108957;1258;64282;-80
2023/02/17 10:37:00;;;;;;;21.50;14.90;;;;;;;8.89;100.00;99177.73;108977;1258;58459;-79
2023/02/17 10:39:42;;;;;;;19.00;15.20;;;;;;;8.97;100.00;99172.98;108926;1258;58165;-79
2023/02/17 10:42:17;;;;;;;17.60;14.60;;;;;;;8.99;100.00;99176.42;109006;1259;65971;-80
2023/02/17 10:44:45;;;;;;;16.50;13.60;;;;;;;8.95;100.00;99177.17;109527;1253;61347;-79
2023/02/17 10:47:14;;;;;;;16.30;14.00;;;;;;;8.93;100.00;99173.78;109591;1253;65136;-79
2023/02/17 10:49:45;;;;;;;18.70;13.30;;;;;;;8.89;100.00;99172.92;109615;1252;58117;-79
2023/02/17 10:52:15;;;;;;;16.60;12.80;;;;;;;8.89;100.00;99171.89;109565;1252;58275;-79
2023/02/17 10:55:23;;;;;;;17.30;12.90;;;;;;;8.88;100.00;99168.75;109607;1252;66306;-79
2023/02/17 10:57:57;;;;;;;15.20;13.20;;;;;;;8.80;100.00;99165.82;108848;1259;61236;-79
2023/02/17 11:00:25;;;;;;;15.60;13.00;;;;;;;8.70;100.00;99159.15;108946;1261;64231;-79
2023/02/17 11:02:53;;;;;;;14.80;12.80;;;;;;;8.61;100.00;99159.66;108945;1259;58274;-79
2023/02/17 11:05:26;;;;;;;13.70;12.20;;;;;;;8.51;100.00;99160.02;108972;1259;58243;-80
2023/02/17 11:07:57;;;;;;;18.40;13.40;;;;;;;8.41;100.00;99149.60;108940;1259;66410;-80
2023/02/17 11:10:35;;;;;;;;;;;;;;;8.35;100.00;99152.19;108999;1259;62899;-80
2023/02/17 11:13:03;;;;;;;16.80;13.20;;;;;;;8.27;100.00;99148.55;108862;1259;64438;-79
2023/02/17 11:15:35;;;;;;;20.80;13.60;;;;;;;8.28;100.00;99145.50;108931;1259;58160;-79
2023/02/17 11:18:11;;;;;;;16.00;13.30;;;;;;;8.32;100.00;99136.27;108986;1259;58318;-79
2023/02/17 11:20:38;;;;;;;16.20;13.50;;;;;;;8.38;100.00;99131.85;108904;1259;66331;-79
2023/02/17 11:23:20;;;;;;;17.70;13.00;;;;;;;8.41;100.00;99130.29;108993;1259;60081;-79
2023/02/17 11:26:10;;;;;;;15.90;12.80;;;;;;;8.43;100.00;99124.55;108987;1259;65235;-81
2023/02/17 11:28:37;;;;;;;16.20;13.20;;;;;;;8.50;100.00;99116.13;108950;1259;58268;-79